Logs for Larry Weaver, Northwood, OH, USA [EN81go]
Paging Controls
Date UTC KHz ID Location S/P ITU Region GSQ LSB USB Sec. Fmt. Power KM Miles
2021-09-10 1130 239 TN 'Tribe' Menominee WI USA na EN65db 516 320
2021-09-10 0650 302 HO 'Beady' Huron SD USA na EN04tk 25 1251 777
2021-09-10 0630 332 XH Medicine Hat AB CAN na DO40oa 50 2299 1428
2021-09-10 0610 281 CX 'Alibi' Conroe TX USA na EM20gk 25 1641 1020
2021-09-10 0602 276 LAH 'Hanover' Lebanon NH USA na FN33vq 25 948 589
2021-09-10 0558 251 BR 'Larew' Brainerd MN USA na EN26xk 25 1001 622
2021-09-10 0556 206 IIB 'Wapsie' Independence IA USA na EN42ak 25 708 440
2021-09-10 0556 252 SMS Sumter SC USA na EM93tx 25 890 553
2021-09-10 0556 269 PK 'Spida' Park Rapids MN USA na EN26mu 25 1085 674
2021-09-10 0555 234 EQQ 'Coweta County' Newnan GA USA na EM73pg 25 933 580
2021-09-10 0555 278 GPQ Carrollton GA USA na EM73kn 25 906 563
2021-09-10 0555 316 FFC 'Pecat' Peachtree City GA USA na EM73sh 926 575
2021-09-09 0756 362 YZS Coral Harbour NU CAN na EP84id 500 2506 1557
2021-09-09 0755 359 GGF Grant NE USA na DN90du 1525 948
2021-09-09 0755 372 YCO Coppermine / Kugluktuk NU CAN na DP27kt 1000 3471 2157
2021-09-09 0750 393 BR 'Depoo' Brownsville TX USA na EL15fx 2164 1345
2021-09-09 0742 356 ZXE Barnes (Saskatoon) SK CAN na DO62rd 39 2095 1302
2021-09-09 0740 338 TU 'Oillr' Tulsa OK USA na EM26bc 1235 767
2021-09-09 0739 242 ZT Port Hardy BC CAN na CO60gq 500 3480 2162
2021-09-09 0739 389 YWB Kelowna BC CAN na DN09et 2920 1814
2021-09-07 2241 16804.5 003669990 CAMSPAC Pt Reyes CA USA na CM87pw 3350 2081
2021-09-07 2240 12577 003669990 CAMSPAC Pt Reyes CA USA na CM87pw 3350 2081
2021-09-07 2228 12577 003669997 COMMSTA Miami FL USA na EL95to 1801 1119
2021-09-07 2228 16804.5 003669997 COMMSTA Miami FL USA na EL95to 1801 1119
2021-09-07 2204 12577 002241026 Las Palmas Radio CNR af IL27es 6227 3869
2021-09-07 2038 12577 002711000 Istanbul Radio TUR as KN40jx 8583 5333
2021-09-07 1251 12577 002241022 Coruna Radio ESP eu IN53si 5935 3687
2021-09-07 1248 12577 004123100 Guangzhou Radio CHN as OL63rd 12607 7833
2021-09-07 1241 12577 005030001 Charleville / Wiluna Radio WE AUS oc PG30gp 1000 16994 10559
2021-09-07 1240 16804.5 005741040 Hai Phong Radio XVG VTN as OL30iu 12991 8072
2021-09-07 1230 12577 003160023 Iqaluit Radio NU CAN na FP53rr 5000 2642 1642
2021-09-07 1228 16804.5 005671000 Bangkok Radio THA as OK03hn 13867 8616
2021-09-07 1225 16804.5 003160023 Iqaluit Radio NU CAN na FP53rr 5000 2642 1642
2021-09-07 1136 16804.5 002711000 Istanbul Radio TUR as KN40jx 8583 5333
2021-09-07 1124 16804.5 002371000 Olympia Radio GRC eu KM07ro 8379 5206
2021-09-06 0541 332 VT Buffalo Narrows SK CAN na DO55su 500 2399 1491
2021-09-02 1324 16804.5 005671000 Bangkok Radio THA as OK03hn 13867 8616
2021-09-01 0533 245 GTP 'Patten' Thomasville GA USA na EM80cw 1186 737
2021-09-01 0531 237 EZF 'Shannon' Fredericksburg VA USA na FM18gg 25 631 392
2021-08-29 1224 12577 004122100 Shanghai Radio CHN as PM01sc 11533 7166
2021-08-28 1941 16804.5 003669993 CAMSPAC Honolulu HI HWA oc BL01wk 7198 4472
2021-08-28 1917 8414.5 003669998 COMMSTA New Orleans LA USA na EL59av 1427 886
2021-08-28 1845 16804.5 003669990 CAMSPAC Pt Reyes CA USA na CM87pw 3350 2081
2021-08-28 1834 16804.5 003669995 COMMSTA Portsmouth VA USA na FM16xr 838 520
2021-08-28 1712 16804.5 003669991 COMMSTA Boston MA USA na FN41rp 1072 666
2021-08-28 1712 16804.5 003669998 COMMSTA New Orleans LA USA na EL59av 1427 886
2021-08-28 1711 16804.5 003669899 Kodiak Radio AK ALS na BO37rs 5031 3126
2021-08-28 1420 16804.5 003669997 COMMSTA Miami FL USA na EL95to 1801 1119
2021-08-28 1227 12577 003160023 Iqaluit Radio NU CAN na FP53rr 5000 2642 1642
2021-08-28 1218 12577 005030001 Charleville / Wiluna Radio WE AUS oc PG30gp 1000 16994 10559
2021-08-28 1127 6312 005030001 Charleville / Wiluna Radio WE AUS oc PG03gp 17240 10712
2021-08-28 1111 6312 003669990 CAMSPAC Pt Reyes CA USA na CM87pw 3350 2081
2021-08-28 1109 4207.5 003669899 Kodiak Radio AK ALS na BO37rs 5031 3126
2021-08-28 1105 6312 003669993 CAMSPAC Honolulu HI HWA oc BL01wk 7198 4472
2021-08-28 1057 6312 003669997 COMMSTA Miami FL USA na EL95to 1801 1119
2021-08-28 1055 4207.5 003669990 CAMSPAC Pt Reyes CA USA na CM87pw 3350 2081
2021-08-28 1047 6312 003669995 COMMSTA Portsmouth VA USA na FM16xr 838 520
2021-08-28 1011 4207.5 003669993 CAMSPAC Honolulu HI HWA oc BL01wk 7198 4472
2021-08-28 1005 8414.5 003669997 COMMSTA Miami FL USA na EL95to 1801 1119
2021-08-28 1004 4207.5 003669997 COMMSTA Miami FL USA na EL95to 1801 1119
2021-08-28 1002 12577 003669991 COMMSTA Boston MA USA na FN41rp 1072 666
2021-08-28 1001 8414.5 003669990 CAMSPAC Pt Reyes CA USA na CM87pw 3350 2081
2021-08-28 1001 8414.5 003669991 COMMSTA Boston MA USA na FN41rp 1072 666
2021-08-28 1000 6312 003669991 COMMSTA Boston MA USA na FN41rp 1072 666
2021-08-28 0956 8414.5 003669995 COMMSTA Portsmouth VA USA na FM16xr 838 520
2021-08-28 0642 8414.5 007010003 Mar del Plata Radio ARG sa GF11fw 9238 5740
2021-08-28 0641 6312 007010003 Mar del Plata Radio ARG sa GF11fw 9238 5740
2021-08-28 0630 8414.5 002241024 Valencia Radio ESP eu IM98wr 6794 4222
2021-08-28 0620 8414.5 007600125 Callao Radio PRU sa FH17kw 6001 3729
2021-08-28 0610 8414.5 006010001 Cape Town Radio AFS af JF96ii 13334 8285
2021-08-28 0602 6312 003160023 Iqaluit Radio NU CAN na FP53rr 2642 1642
2021-08-28 0435 8414.5 007251860 Valparaiso Radio CHL sa FF46ew 8388 5212
2021-08-28 0310 4207.5 002241026 Las Palmas Radio CNR af IL27es 6227 3869
2021-08-28 0245 8414.5 002241022 Coruna Radio ESP eu IN53si 5935 3687
2021-08-28 0148 8414.5 002241026 Las Palmas Radio CNR af IL27es 6227 3869
2021-08-28 0133 4207.5 003669991 COMMSTA Boston MA USA na FN41rp 1072 666
2021-08-28 0046 12577 002241022 Coruna Radio ESP eu IN53si 5935 3687
2021-08-28 0026 4207.5 002241024 Valencia Radio ESP eu IM98wr 6794 4222
2021-08-28 0023 4207.5 002241022 Coruna Radio ESP eu IN53si 5935 3687
2021-08-28 0010 4207.5 003669995 COMMSTA Portsmouth VA USA na FM16xr 838 520
2021-08-28 0002 6312 007251860 Valparaiso Radio CHL sa FF46ew 8388 5212
2021-08-27 2345 16804.5 005030001 Charleville / Wiluna Radio WE AUS oc PG30gp 16994 10559
2021-08-27 2327 4207.5 003669998 COMMSTA New Orleans LA USA na EL59av 1427 886
2021-08-27 2316 12577 007251860 Valparaiso Radio CHL sa FF46ew 8388 5212
2021-08-27 1918 16804.5 003160023 Iqaluit Radio NU CAN na FP53rr 5000 2642 1642
2021-08-27 1415 16804.5 002711000 Istanbul Radio TUR as KN40jx 8583 5333
2021-08-17 1021 255 BS 'Creed' Austin TX USA na EM10dc 1807 1123
2021-08-17 1019 314 VTN Valentine NE USA na DN92ru 25 1411 877
2021-08-17 1015 338 HR 'Sebas' Harlingen TX USA na EL16eh 25 2138 1328
2021-08-17 1013 335 DR 'Kotti' Del Rio TX USA na DL99mk 2075 1289
2021-08-17 1012 347 PA Prince Albert SK CAN na DO73cf 25 2105 1308
2021-08-17 1002 278 AUR 'Sulfy' Sulphur LA USA na EM30ge 25 1554 965
2021-08-17 1001 284 BT 'Rundi' Baton Rouge LA USA na EM40jn 1410 876
2021-08-17 0756 304 ZQM Riverview (Moncton) NB CAN na FN76oa 100 1572 977
2021-08-17 0556 305 RO 'Topan' Roswell NM USA na DM73si 400 2060 1280
2021-08-17 0551 281 CA Cartwright NL CAN na GO13lr 1000 2371 1473
2021-08-17 0551 323 TAB Crown Point TRD ca FK91nd 4037 2509
2021-08-17 0428 256 YCY Clyde River NU CAN na FQ50rl 1000 3319 2062
2021-08-17 0428 341 YCS Chesterfield Inlet NU CAN na EP43pi 25 2464 1531
2021-08-17 0230 280 QX Gander NL CAN na GN28px 1000 2376 1476
2021-08-17 0223 275 GUY Guymon OK USA na DM96fq 25 1648 1024
2021-08-17 0223 340 ZJT Stephenville NL CAN na GN08tn 2104 1307
2021-08-16 0649 323 KR Squaw Schefferville QC CAN na FO64ot 250 1909 1186
2021-08-16 0639 352 BVG 'Boll Weevil' Enterprise AL USA na EM71ai 1161 721
2021-08-16 0547 362 RPX Round Up MT USA na DN56rl 25 2067 1284
2021-08-16 0544 267 HET Henryetta OK USA na EM15xj 25 1292 803
2021-08-16 0542 271 HXO Huntsboro NC USA na FM06qh 25 721 448
2021-08-16 0541 338 YN 'Fetch' Youngstown / Warren OH USA na EN91qe 25 241 150
2021-08-16 0541 341 FO 'Barro' Fort Dodge IA USA na EN22um 25 899 559
2021-08-16 0541 344 JL 'Lunns' Joplin MO USA na EM27re 1070 665
2021-08-16 0541 347 ATA Atlanta TX USA na EM23vc 25 1338 831
2021-08-16 0540 254 LLW 'Woodville' Elizabeth City NC USA na FM16ug 50 857 533
2021-08-16 0540 332 SG 'Depre' Green Bay WI USA na EN54wj 25 490 304
2021-08-16 0539 213 YRC 'St. Honore' Chicoutimi QC CAN na FN48km 25 1234 767
2021-08-16 0539 247 YDP Nain NL CAN na FO96dm 2274 1413
2021-08-16 0538 224 BH 'Mc Den' Birmingham AL USA na EM63nm 400 947 589
2021-08-16 0537 233 UM Churchill Falls NL CAN na FO73vo 1954 1214
2021-08-16 0537 237 EZF 'Shannon' Fredericksburg VA USA na FM18gg 25 631 392
2021-08-16 0536 221 BO 'Booie' Bristol (Johnston-Kingsport) TN USA na EM86sj 585 364
2021-08-16 0535 236 ZRJ Round Lake ON CAN na EO42iw 25 1390 863
2021-08-16 0534 206 XBE Bearskin Lake ON CAN na EO43lx 25 1486 923
2021-08-16 0533 207 YNE Norway House MB CAN na EO13bx 1000 1740 1081
2021-08-16 0533 356 HEU 'Hunter' Schenectady NY USA na FN32au 794 493
2021-08-16 0532 263 ZQT 'Superior' Thunder Bay ON CAN na EN58jj 50 879 546
2021-08-16 0532 278 EOE 'Enoree' Newberry SC USA na EM94eh 25 826 513
2021-08-16 0523 257 TZ 'Gibraltar Point' Toronto Island ON CAN na FN03ho 25 401 249
2021-08-16 0523 369 ZDX Coolidge Saint Johns ATG ca FK97cd 700 3414 2121
2021-08-16 0511 284 RQY 'Randolph Co' Elkins WV USA na FM08bv 50 428 266
2021-08-16 0510 260 MTH Marathon FL USA na EL94kr 100 1888 1173
2021-08-16 0502 326 UOT 'Union County' Union SC USA na EM94eq 25 785 488
2021-08-16 0444 359 SDR Snyder TX USA na DM92mq 25 1835 1140
2021-08-16 0438 356 AY St Anthony NL CAN na GO11wj 25 2339 1453
2021-08-16 0434 381.5 SJX 'St James' Beaver Island MI USA na EN75fq 25 484 301
2021-08-16 0431 397 JE 'Algoa' Jefferson City MO USA na EM38xn 804 500
2021-08-16 0413 338 RYN 'Ryan' Tucson AZ USA na DM42kd 400 2661 1653
2021-08-16 0411 328 LC 'Blnap' Laconia NH USA na FN43fm 998 620
2021-08-16 0411 334 LH 'Egrow' Bloomington IL USA na EN50nn 468 291
2021-08-16 0410 344 CGQ 'Powell' Corsicana TX USA na EM12sb 1566 973
2021-08-16 0409 335 BV 'Almnd' Batesville AR USA na EM45cq 25 977 607
2021-08-16 0402 350 RB Resolute Bay NU CAN na EQ24mr 3000 3728 2317
2021-08-16 0401 348 MC 'Surff' Mason City IA USA na EN33ib 25 824 512
2021-08-16 0348 376 BHC Baxley GA USA na EM81tr 1102 685
2021-08-16 0345 355 CS 'Fenix' Columbus GA USA na EM72lk 1029 639
2021-08-16 0343 382 BT 'Herro' Burlington VT USA na FN34jm 893 555
2021-08-16 0339 356 YBG Bagotville QC CAN na FN48ki 1224 760
2021-08-16 0337 380 UMB 'Culvr' Milledgeville GA USA na EM83kd 25 941 585
2021-08-16 0336 368 VIQ Neillsville WI USA na EN44rn 25 662 411
2021-08-16 0306 346 YXL Sioux Lookout ON CAN na EO40bc 1000 1146 712
2021-08-16 0306 346 LW 'Bushi' Lewisburg WV USA na EM97ss 497 309
2021-08-16 0250 387 CAV Clarion IA USA na EN32cr 25 860 534
2021-08-16 0249 393 FGP Fort Bragg NC USA na FM05od 40 825 513
2021-08-16 0234 389 PVC Provincetown MA USA na FN42vb 25 1098 682
2021-08-15 0856 204 GB 'Plazz' Buffalo NY USA na FN02ou 408 254
2021-08-15 0856 206 AP 'Felps' Alpena MI USA na EN84fx 375 233
2021-08-15 0856 209 SYS 'Stoystown' Somerset PA USA na FN00nc 25 420 261
2021-08-15 0856 215 YTR Trenton ON CAN na FN14he 25 572 356
2021-08-15 0856 216 YFA Fort Albany ON CAN na EO92de 200 1184 736
2021-08-15 0856 242 LE 'Blayd' Lexington KY USA na EM77qx 415 258
2021-08-15 0856 245 LUA 'Caverns' Luray VA USA na FM08sq 25 534 332
2021-08-15 0856 245 HU 'Yinno' Terre Haute IN USA na EM69hj 412 256
2021-08-15 0856 248 KZ 'Buttonville' Stouffville (Toronto) ON CAN na FN03iw 25 428 266
2021-08-15 0856 251 JZY Macomb IL USA na EN40rm 25 606 376
2021-08-15 0856 263 QY Sydney NS CAN na GN06af 500 1943 1207
2021-08-15 0856 263 CVM 'Civic Memorial' Alton IL USA na EM48xv 634 394
2021-08-15 0856 272 OLY 'Olney' Olney-Noble IL USA na EM58vr 25 515 320
2021-08-15 0856 272 IK Kankakee IL USA na EN61ba 374 233
2021-08-15 0856 273 FK 'Airbe' Fort Campbell (Hopkinsville) KY USA na EM66hr 25 638 397
2021-08-15 0856 290 QR Regina SK CAN na DO70ri 100 1887 1173
2021-08-15 0856 293 TOR Torrington WY USA na DN72wb 25 1709 1062
2021-08-15 0856 326 FC Fredericton NB CAN na FN65qw 1600 1431 889
2021-08-15 0856 329 AAA 'Abraham' Lincoln IL USA na EN50hd 25 523 325
2021-08-15 0856 332 DN 'Julip' Danville IL USA na EN60fg 374 232
2021-08-15 0856 335 ZKF Kitchener (Wellington) ON CAN na EN93ul 15 333 207
2021-08-15 0856 338 TT 'Stutt' Stuttgart AR USA na EM44fm 25 1058 657
2021-08-15 0856 339 OP 'Yates' Thomaston GA USA na EM72vw 966 600
2021-08-15 0856 341 OIN Oberlin KS USA na DM99rt 25 1451 902
2021-08-15 0856 341 DNI Denison TX USA na EM13pt 25 1449 900
2021-08-15 0856 344 TKH 'Tallulah' Vicksburg LA USA na EM42lf 1240 770
2021-08-15 0856 350 RG 'Gally' Oklahoma City OK USA na EM15eh 400 1415 879
2021-08-15 0856 350 CP 'Acore' Cahokia / St Louis IL USA na EM48xm 25 656 408
2021-08-15 0856 351 MSQ Culpeper VA USA na FM18bk 25 591 367
2021-08-15 0856 356 ODX Ord NE USA na EN01mo 25 1287 800
2021-08-15 0856 362 MT Manitowac WI USA na EN64de 450 279
2021-08-15 0856 375 DS Searcy AR USA na EM45cc 25 1024 636
2021-08-15 0856 376 YAG Fort Frances ON CAN na EN38fq 40 1114 692
2021-08-15 0856 383 CNP Chappell NE USA na DN81sb 25 1584 984
2021-08-15 0856 385 JD 'Gooey' Belleville IL USA na EM58dl 635 395
2021-08-15 0856 392 FMZ 'Beklof' Fairmont NE USA na EN10fo 25 1184 736
2021-08-15 0856 395 ULS Ulysses KS USA na DM97ho 1594 991
2021-08-15 0856 397 ZST 'Alpine' Saint John NB CAN na FN75af 50 1466 911
2021-08-15 0856 400 OHY 'Coney' Cordele GA USA na EM81bx 25 1071 665
2021-08-15 0856 407 OOC 'Campi' Natchitoches LA USA na EM31lp 25 1397 868
2021-08-15 0856 407 HRU Herington KS USA na EM18oq 25 1177 731
2021-08-15 0856 407 BZ 'Bullo' Statesboro GA USA na EM92ek 25 1032 641
2021-08-15 0856 417 SLP 'First River' Shelby NC USA na EM95eg 25 722 449
2021-08-15 0856 417 HQT 'Harnett' Coats NC USA na FM05pk 25 800 497
2021-08-15 0600 224 MO Moosonee ON CAN na EO91qg 400 1096 681
2021-08-15 0500 206 QI Yarmouth NS CAN na FN63wt 500 1434 891
2021-08-15 0500 207 FD Brantford ON CAN na EN93tb 301 187
2021-08-15 0500 209 MT 'Chiboo' Chibougamau (Chapais) QC CAN na FN29st 500 1148 713
2021-08-15 0500 212 VP 'Sedly' Valparaiso IN USA na EN61nk 285 177
2021-08-15 0500 212 SJ Saint John NB CAN na FN75cj 1000 1482 921
2021-08-15 0500 214 YIO Pond Inlet NU CAN na FQ12aq 25 3468 2155
2021-08-15 0500 216 ME Matane QC CAN na FN68ft 100 1478 918
2021-08-15 0500 218 YUY Rouyn QC CAN na FN08me 500 813 505
2021-08-15 0500 220 BX Blanc Sablon / Lourdes de Blanc Sablon QC CAN na GO11jk 2000 2269 1410
2021-08-15 0500 221 HM Hamilton (Carluke) ON CAN na EN93xc 25 326 203
2021-08-15 0500 223 YYW Armstrong ON CAN na EO50lh 100 1059 658
2021-08-15 0500 223 MW 'Onida' Franklin OH USA na EM79un 238 148
2021-08-15 0500 224 DN Dauphin MB CAN na DO91xc 25 1647 1023
2021-08-15 0500 227 SQ 'Pnthr' Connersville IN USA na EM79ks 25 248 154
2021-08-15 0500 230 QB Quebec QC CAN na FN46gr 200 1112 691
2021-08-15 0500 230 BU 'Boutn' Columbus OH USA na EM89jt 200 124
2021-08-15 0500 233 BR Brandon MB CAN na DN99xv 25 1577 980
2021-08-15 0500 235 9H La Grande 3 QC CAN na FO13vn 250 1434 891
2021-08-15 0500 236 OW Ramsayville (Ottawa) ON CAN na FN25fi 60 762 474
2021-08-15 0500 245 UDG Darlington SC USA na FM04bk 25 856 532
2021-08-15 0500 245 PWF 'Sportys' Batavia OH USA na EM79vb 25 290 180
2021-08-15 0500 245 FS 'Rokky' Sioux Falls SD USA na EN13ol 100 1111 690
2021-08-15 0500 248 WG Winnipeg MB CAN na EN19hv 250 1416 880
2021-08-15 0500 250 UGS 'University' Athens / Albany OH USA na EM89wg 25 283 176
2021-08-15 0500 250 FO Flin Flon MB CAN na DO94dq 1600 1975 1227
2021-08-15 0500 251 AM 'Pande' Amarillo TX USA na DM95cd 400 1747 1086
2021-08-15 0500 253 GB 'Garno' Marshall MN USA na EN24bm 25 1058 657
2021-08-15 0500 253 DD 'Cobbs' Columbus OH USA na EM89lr 49 211 131
2021-08-15 0500 257 MB 'Olste' Saginaw MI USA na EN73vl 217 135
2021-08-15 0500 257 DT 'Pinck' Denton TX USA na EM13jg 25 1524 947
2021-08-15 0500 263 YGK Kingston ON CAN na FN14qh 1000 632 393
2021-08-15 0500 263 LQL 'Lakeland' Willoughby OH USA na EN91hq 25 173 108
2021-08-15 0500 263 GR 'Knobs' Grand Rapids MI USA na EN72hv 213 133
2021-08-15 0500 266 ZMM 'Mirabel' Colomban (Montreal) QC CAN na FN25vq 20 871 541
2021-08-15 0500 266 ZHM Hamilton (Binbrook) ON CAN na FN03cd 50 346 215
2021-08-15 0500 269 UDE Delta MB CAN na EO00ud 50 1485 923
2021-08-15 0500 269 TII Tiffin OH USA na EN81jc 59 37
2021-08-15 0500 272 ZMR 'Mirabel' Montreal QC CAN na FN25wo 200 872 542
2021-08-15 0500 276 YEL Elliot Lake ON CAN na EN86qi 250 532 331
2021-08-15 0500 278 ADG Adrian MI USA na EN71xu 50 56 35
2021-08-15 0500 284 RT Rankin Inlet NU CAN na EP32wt 1000 2425 1507
2021-08-15 0500 287 ZWG 'Stoney' Medicine Rock (Winnipeg) MB CAN na EN19jx 17 1411 877
2021-08-15 0500 300 YIV Island Lake MB CAN na EO23qu 500 1593 990
2021-08-15 0500 315 AT 'Bruny' Dayton OH USA na EM79tu 209 130
2021-08-15 0500 317 ZZR 'Trenton (Apt)' Severn ON CAN na FN14eb 50 548 341
2021-08-15 0500 317 ZMX Janvier / Mirabel (Montreal) QC CAN na FN35ar 20 890 553
2021-08-15 0500 323 OUK Calhoun GA USA na EM74mj 24 812 505
2021-08-15 0500 326 PKZ 'Pickens' Pensacola FL USA na EM60jk 400 1286 799
2021-08-15 0500 328 YTL Big Trout Lake ON CAN na EO53bt 1000 1438 894
2021-08-15 0500 328 BZJ 'Bellgrove' Indiantown Gap PA USA na FN10rk 594 369
2021-08-15 0500 329 YEK Arviat NU CAN na EP21xc 500 2282 1418
2021-08-15 0500 329 PMV Plattsmouth NE USA na EN20bw 25 1039 646
2021-08-15 0500 329 CH 'Ashly' Charleston SC USA na EM92wx 400 1003 623
2021-08-15 0500 331 JV 'Catch' Jeffersonville IN USA na EM78dl 397 246
2021-08-15 0500 332 YFM La Grande 4 QC CAN na FO33dr 2000 1530 950
2021-08-15 0500 332 QT Thunder Bay ON CAN na EN58gi 1000 886 550
2021-08-15 0500 332 PH 'Phurn' Port Huron MI USA na EN82qu 155 96
2021-08-15 0500 332 FIS 'Fish Hook' Key West FL USA na EL94cn 400 1901 1181
2021-08-15 0500 334 YER Fort Severn ON CAN na EO65ex 195 1626 1010
2021-08-15 0500 335 YLD Chapleau ON CAN na EN87hs 100 686 426
2021-08-15 0500 336 MA 'Wexford' Cadillac MI USA na EN74ff 338 210
2021-08-15 0500 338 ZEM Eastmain QC CAN na FO02rf 25 1238 769
2021-08-15 0500 338 YPX Puvirnituq QC CAN na FP10ib 500 2095 1302
2021-08-15 0500 340 YY Mont Joli QC CAN na FN58un 500 1416 880
2021-08-15 0500 340 GN 'Brindl' Lexington KY USA na EM78rc 400 248
2021-08-15 0500 341 HVS Hartsville SC USA na EM94wj 25 853 530
2021-08-15 0500 341 CQN 'Daisy' Chattanooga TN USA na EM75kd 50 732 455
2021-08-15 0500 344 JA 'Dinns' Jacksonville FL USA na EM90cl 400 1246 774
2021-08-15 0500 347 AFK Nebraska City NE USA na EN20bo 1045 649
2021-08-15 0500 350 D7 Kincardine ON CAN na EN94ee 25 324 201
2021-08-15 0500 351 YKQ Waskaganish QC CAN na FO01pl 500 1156 718
2021-08-15 0500 352 VM 'Meana', Mena Intermountain Municipal AR USA na EM24xm 25 1214 754
2021-08-15 0500 353 QG Saint Clair Beach (Windsor) ON CAN na EN82nh 25 92 57
2021-08-15 0500 353 PG Portage MB CAN na EN09vu 25 1462 909
2021-08-15 0500 359 GYG Grayling MI USA na EN74or 25 364 226
2021-08-15 0500 360 PN Port-Menier / Ile Anticosti QC CAN na FN79tu 500 1735 1078
2021-08-15 0500 361 HB 'Himun' Burlington NC USA na FM05ex 708 440
2021-08-15 0500 362 SUR Fitzgerald GA USA na EM81io 25 1112 691
2021-08-15 0500 362 SB Sudbury ON CAN na EN96mp 400 595 370
2021-08-15 0500 362 AK Akron OH USA na EN91hb 184 114
2021-08-15 0500 363 RNB 'Rainbow' Millville NJ USA na FM29kk 50 744 462
2021-08-15 0500 365 TV 'Gwenn' Traverse City MI USA na EN74gr 30 383 238
2021-08-15 0500 365 SYZ Shelbyville IL USA na EM59nj 25 519 323
2021-08-15 0500 365 JN 'Balll' Muncie IN USA na EN70ie 220 137
2021-08-15 0500 365 DYB 'Dorchester Co' Summerville SC USA na EM93ub 25 990 615
2021-08-15 0500 365 AA 'Kenie' Fargo MN USA na EN17oa 100 1217 756
2021-08-15 0500 366 EZM Eastman GA USA na EM82kd 25 1052 654
2021-08-15 0500 368 TEC 'Tech' Blacksburg VA USA na EM97te 25 558 347
2021-08-15 0500 370 HYW 'Horry' Conway SC USA na FM03kt 25 946 588
2021-08-15 0500 371 AZ 'Austn' Vicksburg MI USA na EN72fd 183 114
2021-08-15 0500 372 UQN 'Onyun' Vidalia GA USA na EM82uf 25 1047 651
2021-08-15 0500 372 MF 'Manns' Mansfield OH USA na EN80ss 125 78
2021-08-15 0500 373 2Q Mont-Laurier QC CAN na FN26go 25 846 526
2021-08-15 0500 375 LQ 'Licol' Springfield IL USA na EM59ev 553 344
2021-08-15 0500 376 LC 'Pickl' Columbus OH USA na EM89nv 25 196 122
2021-08-15 0500 378 UX Hall Beach NU CAN na EP98is 400 3023 1878
2021-08-15 0500 378 RJ Roberval QC CAN na FN38un 500 1167 725
2021-08-15 0500 379 YPQ Peterborough ON CAN na FN04sf 25 501 311
2021-08-15 0500 379 DL 'Pykla' Duluth MN USA na EN36tu 918 571
2021-08-15 0500 379 BRA 'Broad River' Asheville NC USA na EM85sg 100 709 441
2021-08-15 0500 381 MNI Manning SC USA na EM93vo 25 934 580
2021-08-15 0500 382 YPW Powell River BC CAN na CN79ru 3272 2033
2021-08-15 0500 382 SP 'Huskk' Springfield IL USA na EM59cs 25 571 355
2021-08-15 0500 385 YNC Wemindji QC CAN na FO03oa 25 1316 818
2021-08-15 0500 385 UWL New Castle IN USA na EM79iv 25 245 152
2021-08-15 0500 385 EMR 'Emory' Augusta GA USA na EM93al 400 913 567
2021-08-15 0500 388 CFJ Crawfordsville IN USA na EM69nx 25 340 211
2021-08-15 0500 388 CDX 'Cumberland River' Somerset KY USA na EM76px 25 525 326
2021-08-15 0500 389 EN 'Codee' Kenosha WI USA na EN52xn 393 244
2021-08-15 0500 391 PLX 'Palestine' Robinson IL USA na EM69ea 25 455 283
2021-08-15 0500 391 OO Oshawa ON CAN na FN03nw 7 455 283
2021-08-15 0500 391 FIQ 'Fiddlers' Morganton NC USA na EM95dr 25 670 417
2021-08-15 0500 391 DDP San Juan / Dorado / Luiz Munoz Marin Intl PR PTR ca FK68tl 2000 3038 1888
2021-08-15 0500 394 MKL 'Mersy' Jackson TN USA na EM55mm 25 828 514
2021-08-15 0500 395 OS 'Pober' Oshkosh WI USA na EN53ru 485 301
2021-08-15 0500 397 ZHA Ancaster (Hamilton) ON CAN na EN93xe 14 331 206
2021-08-15 0500 400 CI 'Koloe' Sault Ste. Marie MI USA na EN76rh 25 531 330
2021-08-15 0500 401 YPO Peawanuck ON CAN na EO74gx 125 1494 928
2021-08-15 0500 403 ZTO Woodhill / Brampton (Toronto) ON CAN na FN03dr 40 387 240
2021-08-15 0500 407 ZHU Hauts-Bois / St Hubert (Montreal) QC CAN na FN35hn 95 923 573
2021-08-15 0500 407 IL 'Airbo' Wilmington OH USA na EM89dl 25 237 147
2021-08-15 0500 407 AQ 'Kooky' Appleton WI USA na EN54tf 25 495 308
2021-08-15 0500 408 SN 'St. Catharines' Saint Catharines ON CAN na FN03id 12 383 238
2021-08-15 0500 408 JDM 'Wheatfield' Colby KS USA na DM99lm 25 1500 932
2021-08-15 0500 409 YTA Pembroke ON CAN na FN15jt 25 686 426
2021-08-15 0500 410 BA 'Clifs' Columbus IN USA na EM79ch 25 322 200
2021-08-15 0500 412 CTZ Clinton NC USA na FM04tx 25 859 534
2021-08-15 0500 412 CMY 'Mc Coy' Sparta WI USA na EN43qw 10 640 397
2021-08-15 0500 415 DJD Canton GA USA na EM74sg 25 820 509
2021-08-15 0500 417 IY 'Chukk' Charles City IA USA na EN33pd 25 778 484
2021-08-15 0500 419 RYS 'Grosse Ile' Detroit / Grosse Ile MI USA na EN82kc 25 62 39
2021-08-15 0500 420 TU 'Veron' Tupelo MS USA na EM54oe 25 948 589
2021-08-15 0500 420 FQ 'Montz' Fairmont MN USA na EN23tp 25 921 572
2021-08-15 0500 420 CFY 'Evans' Lake City SC USA na FM03cu 25 920 571
2021-08-13 2006 382 IRS Sturgis MI USA na EN71gt 25 168 104
2021-07-26 0840 400 QQ Comox BC CAN na CN79ms 3302 2052
2021-07-26 0812 400 LKR Lancaster SC USA na EM94nr 797 495
2021-07-26 0726 412 CTZ Clinton NC USA na FM04tx 25 859 534
2021-07-26 0632 414 ATS Artesia NM USA na DM72su 25 2090 1299
2021-07-26 0454 417 HQT 'Harnett' Coats NC USA na FM05pk 25 800 497
2021-07-24 0705 417 SLP 'First River' Shelby NC USA na EM95eg 25 722 449
2021-07-24 0658 412 CMY 'Mc Coy' Sparta WI USA na EN43qw 10 640 397
2021-07-24 0658 408 JDM 'Wheatfield' Colby KS USA na DM99lm 25 1500 932
2021-07-24 0412 407 BZ 'Bullo' Statesboro GA USA na EM92ek 25 1032 641
2021-07-24 0340 401 YPO Peawanuck ON CAN na EO74gx 125 1494 928
2021-07-24 0327 407 HRU Herington KS USA na EM18oq 25 1177 731
2021-07-24 0309 409 YTA Pembroke ON CAN na FN15jt 25 686 426
2021-07-24 0052 407 OOC 'Campi' Natchitoches LA USA na EM31lp 25 1397 868
2021-07-24 0040 400 CI 'Koloe' Sault Ste. Marie MI USA na EN76rh 25 531 330
2021-07-23 1929 407 AQ 'Kooky' Appleton WI USA na EN54tf 25 495 308
2021-07-23 1929 407 CM 'Veals' Champaign / Urbana IL USA na EM59vx 439 273
2021-07-23 1929 403 ZTO Woodhill / Brampton (Toronto) ON CAN na FN03dr 40 387 240
2021-07-23 1627 419 RYS 'Grosse Ile' Detroit / Grosse Ile MI USA na EN82kc 25 62 39
2021-07-23 1623 407 IL 'Airbo' Wilmington OH USA na EM89dl 25 237 147
2021-07-23 1622 410 BA 'Clifs' Columbus IN USA na EM79ch 25 322 200
2021-03-07 0625 8414.5 007600129 Mollendo Radio PRU sa FH32xx 6622 4115
2021-03-07 0518 8414.5 007600123 Pimemtal Radio EQA sa FI03bb 5409 3361
2021-03-07 0142 4207.5 003669990 CAMSPAC Pt Reyes CA USA na CM87pw 3350 2081
2021-03-07 0127 4207.5 002241024 Valencia Radio ESP eu IM98wr 6794 4222
2021-03-07 0116 8414.5 003669991 COMMSTA Boston MA USA na FN41rp 1072 666
2021-03-07 0113 4207.5 003669998 COMMSTA New Orleans LA USA na EL59av 1427 886
2021-03-07 0104 8414.5 007600125 Callao Radio PRU sa FH17kw 6001 3729
2021-03-07 0102 4207.5 002241026 Las Palmas Radio CNR af IL27es 6227 3869
2021-03-07 0045 8414.5 006010001 Cape Town Radio AFS af JF96ii 13334 8285
2021-03-07 0037 4207.5 002241021 Bilbao radio ESP eu IN83li 6325 3930
2021-03-07 0019 4207.5 002241022 Coruna Radio ESP eu IN53si 5935 3687
2021-03-07 0011 4207.5 002711000 Istanbul Radio TUR as KN40jx 8583 5333
2021-03-07 0011 8414.5 007251860 Valparaiso Radio CHL sa FF46ew 8388 5212
2021-03-07 0000 4207.5 002371000 Olympia Radio GRC eu KM07ro 8379 5206
2021-03-06 2348 8414.5 002371000 Olympia Radio GRC eu KM07ro 8379 5206
2021-03-06 2347 4207.5 003669995 COMMSTA Portsmouth VA USA na FM16xr 838 520
2021-03-06 2342 8414.5 002241022 Coruna Radio ESP eu IN53si 5935 3687
2021-02-28 1231 8414.5 005671000 Bangkok Radio THA as OK03hn 13867 8616
2021-02-28 1222 8414.5 005741040 Hai Phong Radio XVG VTN as OL30iu 12991 8072
2021-02-28 1059 8414.5 005120010 Taupo Radio NZL oc RF81fd 13477 8374
2021-02-28 0929 8414.5 005030001 Charleville / Wiluna Radio WE AUS oc PG30gp 16994 10559
2021-02-28 0538 4207.5 003669899 Kodiak Radio AK ALS na BO37rs 5031 3126
2021-02-28 0448 8414.5 007251860 Valparaiso Radio CHL sa FF46ew 8388 5212
2021-02-28 0428 4207.5 002241026 Las Palmas Radio CNR af IL27es 6227 3869
2021-02-28 0236 8414.5 006010001 Cape Town Radio AFS af JF96ii 13334 8285
2021-02-28 0229 4207.5 003669998 COMMSTA New Orleans LA USA na EL59av 1427 886
2021-02-28 0206 4207.5 006010001 Cape Town Radio AFS af JF96ii 13334 8285
2021-02-28 0203 8414.5 002241022 Coruna Radio ESP eu IN53si 5935 3687
2021-02-28 0150 4207.5 003669990 CAMSPAC Pt Reyes CA USA na CM87pw 3350 2081
2021-02-28 0120 4207.5 003669995 COMMSTA Portsmouth VA USA na FM16xr 838 520
2021-02-28 0117 4207.5 002241022 Coruna Radio ESP eu IN53si 5935 3687
2021-02-28 0106 4207.5 003669991 COMMSTA Boston MA USA na FN41rp 1072 666
2021-02-28 0103 8414.5 002570000 Public Correspondence NOR eu
2021-02-28 0047 4207.5 002371000 Olympia Radio GRC eu KM07ro 8379 5206
2021-02-28 0007 8414.5 002371000 Olympia Radio GRC eu KM07ro 8379 5206
2021-02-27 2352 8414.5 002241026 Las Palmas Radio CNR af IL27es 6227 3869
2021-02-27 2344 8414.5 002711000 Istanbul Radio TUR as KN40jx 8583 5333
2021-02-11 0715 8414.5 007600122 Talara Radio PRU sa EI95ik 5137 3192
2021-01-04 1248 6312 004310001 Tokyo Coast Guard Radio JPN as PM95vp 10362 6438
2021-01-04 1238 6312 004122100 Shanghai Radio CHN as PM01sc 11533 7166
2021-01-04 0703 2187.5 002275000 CROSS Etel FRA eu IN87jp 6096 3788
2021-01-04 0702 2187.5 002275100 CROSS Gris Nez FRA eu JO00tu 6256 3887
2021-01-04 0617 2187.5 003313000 Aasiaat Radio GRL na GP39fg 3529 2193
2021-01-04 0613 6312 002570000 Public Correspondence NOR eu
2021-01-04 0505 6312 002711000 Istanbul Radio TUR as KN40jx 8583 5333
2021-01-04 0442 2187.5 002241022 Coruna Radio ESP eu IN53si 5935 3687
2021-01-04 0429 6312 007010003 Mar del Plata Radio ARG sa GF11fw 9238 5740
2021-01-04 0347 2187.5 002711000 Istanbul Radio TUR as KN40jx 8583 5333
2021-01-04 0319 2187.5 002191000 Lyngby Radio DNK eu JO55rt 6574 4085
2021-01-04 0256 2187.5 003100001 Bermuda Harbour Radio BER na FM72pj 1948 1210
2021-01-04 0252 6312 003669993 CAMSPAC Honolulu HI HWA oc BL01wk 7198 4472
2021-01-04 0247 2187.5 002570500 Floroe Radio NOR eu JP21mn 5962 3704
2021-01-04 0054 6312 007251860 Valparaiso Radio CHL sa FF46ew 8388 5212
2021-01-04 0051 2187.5 002320024 Stornoway Radio SCT eu IO68vl 5480 3405
2021-01-04 0051 2187.5 002320004 Aberdeen Radio SCT eu IO87xd 5760 3579
2021-01-04 0044 6312 002570700 Bodo Radio NOR eu JP77eg 6120 3803
2021-01-04 0039 2187.5 002320017 Milford Haven Radio WLS eu IO71kq 5789 3597
2021-01-04 0032 2187.5 002442000 Netherlands CG Radio HOL eu JO22dc 6358 3950
2021-01-04 0016 2187.5 002570300 Rogaland Radio NOR eu JO28tp 6118 3801
2021-01-04 0012 2187.5 002241024 Valencia Radio ESP eu IM98wr 6794 4222
2021-01-03 2359 6312 005671000 Bangkok Radio THA as OK03hn 13867 8616
2021-01-03 2334 2187.5 002570000 Public Correspondance NOR eu
2021-01-03 2329 2187.5 002320010 Dover Radio ENG eu JO01pd 6220 3865
2021-01-03 2254 6312 003669990 CAMSPAC Pt Reyes CA USA na CM87pw 3350 2081
2021-01-03 2246 6312 003669998 COMMSTA New Orleans LA USA na EL59av 1427 886
2021-01-03 2244 6312 003669997 COMMSTA Miami FL USA na EL95to 1801 1119
2021-01-03 2240 6312 003669991 COMMSTA Boston MA USA na FN41rp 1072 666
2021-01-03 2234 6312 003669995 COMMSTA Portsmouth VA USA na FM16xr 838 520
2021-01-03 2214 6312 002371000 Olympia Radio GRC eu KM07ro 8379 5206
2021-01-03 2201 6312 006452700 Mauritius Radio MAU af LG89rt 15643 9719
2021-01-03 2152 6312 005030001 Charleville / Wiluna Radio WE AUS oc PG03gp 17240 10712
2021-01-03 1319 6312 005671000 Bangkok Radio THA as OK03hn 13867 8616
2021-01-03 0838 2187.5 002320019 UK Coastguard ENG eu 5844 3631
2021-01-03 0831 2187.5 002570000 Public Correspondance NOR eu
2021-01-03 0751 2187.5 002320004 Aberdeen Radio SCT eu IO87xd 5760 3579
2021-01-03 0741 2187.5 002320017 Milford Haven Radio WLS eu IO71kq 5789 3597
2021-01-03 0734 2187.5 002241022 Coruna Radio ESP eu IN53si 5935 3687
2021-01-03 0713 2187.5 002442000 Netherlands CG Radio HOL eu JO22dc 6358 3950
2021-01-03 0605 2187.5 002191000 Lyngby Radio DNK eu JO55rt 6574 4085
2021-01-03 0603 2187.5 002371000 Olympia Radio GRC eu KM07ro 8379 5206
2021-01-03 0553 2187.5 002570700 Bodoe Radio NOR eu JP77eg 6120 3803
2021-01-03 0415 2187.5 003313000 Aasiaat Radio GRL na GP39fg 3529 2193
2021-01-03 0355 2187.5 002320014 Falmouth Radio ENG eu IN79jx 5856 3639
2021-01-03 0355 6312 002711000 Istanbul Radio TUR as KN40jx 8583 5333
2021-01-03 0342 6312 007010003 Mar del Plata Radio ARG sa GF11fw 9238 5740
2021-01-03 0233 2187.5 002320010 Dover Radio ENG eu JO01pd 6220 3865
2021-01-03 0228 2187.5 002275200 CROSS Jobourg FRA eu IN99bq 6088 3783
2021-01-03 0016 6312 007251860 Valparaiso Radio CHL sa FF46ew 8388 5212
2021-01-02 2334 6312 002570000 Public Correspondence NOR eu
2021-01-02 2305 6312 006452700 Mauritius Radio MAU af LG89rt 15643 9719
2021-01-02 2118 6312 005030001 Charleville / Wiluna Radio WE AUS oc PG03gp 17240 10712
2021-01-02 2106 6312 002371000 Olympia Radio GRC eu KM07ro 8379 5206
2021-01-02 2055 6312 006010001 Cape Town Radio AFS af JF96ii 13334 8285
2021-01-02 1243 4207.5 004122100 Shanghai Radio CHN as PM01sc 11533 7166
2021-01-02 0853 6312 005030001 Charleville / Wiluna Radio WE AUS oc PG03gp 17240 10712
2021-01-02 0809 2187.5 002570500 Floroe Radio NOR eu JP21mn 5962 3704
2021-01-02 0800 2187.5 002050480 Oostende Radio BEL eu JO11ne 1000 6333 3935
2021-01-02 0544 2187.5 003100001 Bermuda Harbour Radio BER na FM72pj 1948 1210
2021-01-02 0431 6312 007010003 Mar del Plata Radio ARG sa GF11fw 9238 5740
2021-01-02 0417 4207.5 003669991 COMMSTA Boston MA USA na FN41rp 1072 666
2021-01-02 0412 6312 007251860 Valparaiso Radio CHL sa FF46ew 8388 5212
2021-01-02 0346 2187.5 002320007 Humber Radio ENG eu IO94xc 6001 3729
2021-01-02 0154 2187.5 002320004 Aberdeen Radio SCT eu IO87xd 5760 3579
2021-01-02 0107 4207.5 003669899 Kodiak Radio AK ALS na BO37rs 5031 3126
2021-01-02 0039 4207.5 002371000 Olympia Radio GRC eu KM07ro 8379 5206
2021-01-02 0036 4207.5 002711000 Istanbul Radio TUR as KN40jx 8583 5333
2021-01-02 0022 6312 002371000 Olympia Radio GRC eu KM07ro 8379 5206
2021-01-02 0021 2187.5 002320010 Dover Radio ENG eu JO01pd 6220 3865
2021-01-02 0018 4207.5 003669990 CAMSPAC Pt Reyes CA USA na CM87pw 3350 2081
2021-01-02 0017 4207.5 002241024 Valencia Radio ESP eu IM98wr 6794 4222
2021-01-02 0016 4207.5 003669998 COMMSTA New Orleans LA USA na EL59av 1427 886
2021-01-02 0014 4207.5 002241022 Coruna Radio ESP eu IN53si 5935 3687
2021-01-02 0014 6312 006452700 Mauritius Radio MAU af LG89rt 15643 9719
2021-01-02 0006 4207.5 002241026 Las Palmas Radio CNR af IL27es 6227 3869
2021-01-01 2350 2187.5 002570700 Bodoe Radio NOR eu JP77eg 6120 3803
2021-01-01 2348 2187.5 002570000 Public Correspondance NOR eu
2021-01-01 2323 2187.5 002241024 Valencia Radio ESP eu IM98wr 6794 4222
2021-01-01 2312 2187.5 002442000 Netherlands CG Radio HOL eu JO22dc 6358 3950
2021-01-01 2300 2187.5 002241022 Coruna Radio ESP eu IN53si 5935 3687
2021-01-01 2254 2187.5 002275200 CROSS Jobourg FRA eu IN99bq 6088 3783
2021-01-01 2253 2187.5 002241026 Las Palmas Radio CNR af IL27es 6227 3869
2020-12-29 0921 2187.5 002320011 Solent Radio ENG eu IO90xs 6154 3824
2020-12-29 0850 2187.5 002320007 Humber Radio ENG eu IO94xc 6001 3729
2020-12-29 0845 2187.5 002320021 Belfast Radio NIR eu IO74eq 5641 3505
2020-12-29 0829 2187.5 002191000 Lyngby Radio DNK eu JO55rt 6574 4085
2020-12-29 0540 2187.5 002711000 Istanbul Radio TUR as KN40jx 8583 5333
2020-12-29 0439 2187.5 002241026 Las Palmas Radio CNR af IL27es 6227 3869
2020-12-29 0332 2187.5 003313000 Aasiaat Radio GRL na GP39fg 3529 2193
2020-12-29 0311 2187.5 002320001 Shetland Radio (Lerwick) SHE eu IP90kd 5702 3543
2020-12-29 0228 2187.5 002442000 Netherlands CG Radio HOL eu JO22dc 6358 3950
2020-12-29 0216 2187.5 002241022 Coruna Radio ESP eu IN53si 5935 3687
2020-12-29 0127 2187.5 002320024 Stornoway Radio SCT eu IO68vl 5480 3405
2020-12-29 0048 2187.5 002618102 Polish Rescue Radio POL eu JO84gn 6921 4300
2020-11-14 1132 6312 004310001 Tokyo Coast Guard Radio JPN as PM95vp 10362 6438
2020-11-14 1058 6312 005030001 Charleville / Wiluna Radio WE AUS oc PG03gp 17240 10712
2020-11-14 1057 6312 003669990 CAMSPAC Pt Reyes CA USA na CM87pw 3350 2081
2020-11-14 1038 6312 003669991 COMMSTA Boston MA USA na FN41rp 1072 666
2020-11-14 0956 6312 003669899 Kodiak Radio AK ALS na BO37rs 5031 3126
2020-11-14 0905 6312 003669998 COMMSTA New Orleans LA USA na EL59av 1427 886
2020-11-14 0544 6312 007010008 Comodoro Rivadavia ARG sa FE64gd 9851 6121
2020-11-14 0237 6312 007251860 Valparaiso Radio CHL sa FF46ew 8388 5212
2020-11-13 2346 6312 006010001 Cape Town Radio AFS af JF96ii 13334 8285
2020-11-13 2247 6312 003669995 COMMSTA Portsmouth VA USA na FM16xr 838 520
2020-11-13 2229 6312 006452700 Mauritius Radio MAU af LG89rt 15643 9719
2020-11-13 2220 6312 004122100 Shanghai Radio CHN as PM01sc 11533 7166
2020-11-13 2217 6312 002371000 Olympia Radio GRC eu KM07ro 8379 5206
2020-11-13 0630 518 $04P Pass Lake (Thunder Bay) ON CAN na EN58qn 873 542
2020-11-13 0537 518 $12H Tofino BC CAN na CN78fw 3346 2079
2020-11-13 0520 518 $18I Upernavik (Disko Is.) GRL na GQ12ws 3758 2335
2020-11-13 0424 518 $04C Moisie (Sept-Iles) QC CAN na FO60we 1640 1019
2020-11-13 0405 518 $01O Portpatrick SCT eu IO74ku 5665 3520
2020-11-13 0257 518 $03R La Maddalena SAR eu JN41qf 7317 4546
2020-11-13 0243 518 $12Q Cambria CA USA na CM95lm 3309 2056
2020-11-13 0140 518 $01K Niton for NE France ENG eu IO90io 6083 3779
2020-11-13 0013 518 $04B Bermuda Harbour BER na FM72qi 500 1957 1216
2020-11-12 2350 518 $04X Cartwright (Labrador) NL CAN na GO13lr 2371 1473
2020-11-12 2340 518 $04W Nuuk GRL na GP34xb 3203 1990
2020-11-12 2320 518 $04U Chebogue (Fundy) NS CAN na FN63wr 1434 891
2020-11-12 2224 518 $04N Portsmouth VA USA na FM16xr 838 520
2020-11-12 2203 518 $04M Simiutaq (Cape Farewell) GRL na GP60rq 3263 2027
2020-11-12 1457 518 $04F Boston MA USA na FN41rr 1072 666
2020-11-12 0109 518 $04G New Orleans LA USA na EL59av 1427 886
2020-11-12 0032 518 $02D Coruna ESP eu IN52si 5984 3718
2020-11-11 0203 4207.5 003100001 Bermuda Hbr Radio BER na FM72pj 1948 1210
2020-11-10 2247 12577 003450910 Progreso Radio MEX ca EL51dg 2335 1451
2020-11-10 2246 16804.5 003450910 Progreso Radio MEX ca EL51dg 2335 1451
2020-11-09 1610 12577 002241026 Las Palmas Radio CNR af IL27es 6227 3869
2020-11-08 1949 12577 006452700 Mauritius Radio MAU af LG89rt 15643 9719
2020-11-08 1453 12577 005120010 Taupo Radio NZL oc RF81fd 13477 8374
2020-01-03 1357 319 #838 Detroit MI USA na EN82kh 83 52
2020-01-03 1357 322 #839 Porter Center (Youngstown) NY USA na FN03mf 411 255
2020-01-03 1357 286 #918 Wiarton ON CAN na EN94kr 396 246
2020-01-03 1357 296 #929 St Jean Sur Richelieu QC CAN na FN35ih 917 570
2020-01-03 1356 298 #831 Upper Keweenaw MI USA na EN57qf 748 464
2020-01-03 1354 324 #844 Hudson Falls NY USA na FN33fg 834 518
2020-01-03 1351 300 #926 Riviere Du Loup QC CAN na FN57es 1288 800
2020-01-03 1350 306 #772 Acushnet MA USA na FN41nr 1044 649
2020-01-03 1349 293 #803 Moriches NY USA na FN30ps 904 561
2020-01-03 1344 309 #927 Lauzon QC CAN na FN46jt 1133 704
2020-01-03 1339 288 #942 Cape Ray NL CAN na GN07jp 2023 1257
2020-01-03 1338 306 #919 Cardinal ON CAN na FN24gs 737 458
2020-01-03 1334 290 #799 Penobscot ME USA na FN54ok 1231 765
2020-01-03 1328 286 #804 Sandy Hook NJ USA na FN20xl 799 496
2020-01-03 1316 292 #836 Cheboygan MI USA na EN75sp 456 284
2020-01-03 1226 312 #935 Western Head NS CAN na FN73px 1549 962
2020-01-03 1221 313 #925 Moisie QC CAN na FO60we 1640 1019
2020-01-03 1200 320 #907 Richmond BC CAN na CN89mc 3158 1962
2020-01-03 1148 295 #939 Partridge Island NB CAN na FN65xf 1460 907
2020-01-03 1141 310 #944 Cape Norman NL CAN na GO21cm 2365 1470
2020-01-03 1135 307 #934 Fox Island NS CAN na FN84go 1653 1027
2020-01-03 1129 293 #814 English Turn LA USA na EL59av 1427 886
2020-01-03 1112 299 #946 Rigolet NL CAN na GO04uc 2315 1438
2020-01-03 1036 298 #937 Hartlen Point NS CAN na FN84go 1653 1027
2020-01-03 1034 315 #940 Cape Race NL CAN na GN36js 2463 1530
2020-01-03 0841 307 #971 Gatun PNR ca FJ09ag 3611 2243
2020-01-03 0632 302 #972 Miraflores (Panama) PNR ca FJ08ex 3646 2266
2020-01-03 0414 315 #908 Amphitrite Pt. BC CAN na CN78fw 3346 2079
2020-01-03 0407 297.5 #442 Point Lynas Lt. WLS eu IO73uk 5771 3586
2019-12-22 0912 2187.5 002500100 Malin Head Radio IRL eu IO65hi 5512 3425
2019-12-22 0742 2187.5 002320011 Solent Radio ENG eu IO90xs 6154 3824
2019-12-22 0701 2187.5 002275100 CROSS Gris Nez FRA eu JO00tu 6256 3887
2019-12-22 0450 2187.5 002050480 Oostende Radio BEL eu JO11ne 1000 6333 3935
2019-12-22 0414 2187.5 003061000 Curacao Radio ATN ca FK52ne 1000 3564 2214
2019-12-22 0410 2187.5 003313000 Aasiaat Radio GRL na GP39fg 3529 2193
2019-12-22 0410 2187.5 002500200 Valentia Radio IRL eu IO41tv 5442 3382
2019-12-22 0306 2187.5 002320007 Humber Radio ENG eu IO94xc 6001 3729
2019-12-22 0147 2187.5 002470002 Palermo Radio SCY eu JM68ne 7775 4831
2019-12-22 0104 2187.5 002320014 Falmouth Radio ENG eu IN79jx 5856 3639
2019-12-22 0057 2187.5 002442000 Netherlands CG Radio HOL eu JO22dc 6358 3950
2019-12-22 0050 2187.5 002191000 Lyngby Radio DNK eu JO55rt 6574 4085
2019-12-22 0048 2187.5 002275200 CROSS Jobourg FRA eu IN99bq 6088 3783
2019-12-22 0019 2187.5 002241024 Valencia Radio ESP eu IM98wr 6794 4222
2019-12-22 0012 2187.5 002241026 Las Palmas Radio CNR af IL27es 6227 3869
2019-12-21 2354 2187.5 002241022 Coruna Radio ESP eu IN53si 5935 3687
2019-12-19 1058 4207.5 003669997 COMMSTA Miami FL USA na EL95to 1801 1119
2019-12-19 0701 2187.5 002275100 CROSS Gris Nez FRA eu JO00tu 6256 3887
2019-12-19 0623 2187.5 002442000 Netherlands CG Radio HOL eu JO22dc 6358 3950
2019-12-19 0611 2187.5 002191000 Lyngby Radio DNK eu JO55rt 6574 4085
2019-12-19 0611 2187.5 002241024 Valencia Radio ESP eu IM98wr 6794 4222
2019-12-19 0552 4207.5 002711000 Istanbul Radio TUR as KN40jx 8583 5333
2019-12-19 0526 4207.5 003669899 Kodiak Radio AK ALS na BO37rs 5031 3126
2019-12-19 0523 4207.5 003669993 CAMSPAC Honolulu HI HWA oc BL01wk 7198 4472
2019-12-19 0450 2187.5 003313000 Aasiaat Radio GRL na GP39fg 3529 2193
2019-12-19 0411 4207.5 003669998 COMMSTA New Orleans LA USA na EL59av 1427 886
2019-12-19 0308 4207.5 003669995 COMMSTA Portsmouth VA USA na FM16xr 838 520
2019-12-19 0230 4207.5 002241022 Coruna Radio ESP eu IN53si 5935 3687
2019-12-19 0229 4207.5 007703870 Montevideo Radio URG sa GF15ud 8940 5555
2019-12-19 0204 2187.5 003061000 Curacao Radio ATN ca FK52ne 1000 3564 2214
2019-12-19 0159 2187.5 002241026 Las Palmas Radio CNR af IL27es 6227 3869
2019-12-19 0124 2187.5 002241022 Coruna Radio ESP eu IN53si 5935 3687
2019-12-19 0019 4207.5 002371000 Olympia Radio GRC eu KM07ro 8379 5206
2019-12-19 0013 4207.5 003669990 CAMSPAC Pt Reyes CA USA na CM87pw 3350 2081
2019-12-19 0007 4207.5 007251860 Valparaiso Radio CHL sa FF46ew 8388 5212
2019-12-18 2325 8414.5 007251860 Valparaiso Radio CHL sa FF46ew 8388 5212
2019-12-18 2225 8414.5 006452700 Mauritius Radio MAU af LG89rt 15643 9719
2019-12-18 2201 8414.5 003160023 Iqaluit Radio NU CAN na FP53rr 5000 2642 1642
2019-12-18 2200 8414.5 003669997 COMMSTA Miami FL USA na EL95to 1801 1119
2019-12-18 2145 12577 007251860 Valparaiso Radio CHL sa FF46ew 8388 5212
2019-12-18 2140 8414.5 002241022 Coruna Radio ESP eu IN53si 5935 3687
2019-12-18 2132 8414.5 002070810 Varna Radio BUL eu KN33vb 8362 5196
2019-12-18 2120 8414.5 002711000 Istanbul Radio TUR as KN40jx 8583 5333
2019-12-18 2119 8414.5 005030001 Charleville / Wiluna Radio WE AUS oc PG30gp 16994 10559
2019-12-18 2118 8414.5 002371000 Olympia Radio GRC eu KM07ro 8379 5206
2019-12-18 2111 12577 005030001 Charleville / Wiluna Radio WE AUS oc PG30gp 1000 16994 10559
2019-12-18 2035 12577 006010001 Cape Town Radio AFS af JF96ii 13334 8285
2019-12-18 2010 12577 003160023 Iqaluit Radio NU CAN na FP53rr 5000 2642 1642
2019-12-18 1956 12577 007100003 Manaus Radio BRA sa GI06av 5509 3423
2019-12-18 1937 12577 003669993 CAMSPAC Honolulu HI HWA oc BL01wk 7198 4472
2019-12-18 1932 12577 002711000 Istanbul Radio TUR as KN40jx 8583 5333
2019-12-16 1118 4207.5 003669993 CAMSPAC Honolulu HI HWA oc BL01wk 7198 4472
2019-12-16 1101 4207.5 005030001 Charleville / Wiluna Radio WE AUS oc PG03gp 17240 10712
2019-12-16 0822 2187.5 002275000 CROSS Etel FRA eu IN87jp 6096 3788
2019-12-16 0647 2187.5 003313000 Aasiaat Radio GRL na GP39fg 3529 2193
2019-12-16 0618 2187.5 002241024 Valencia Radio ESP eu IM98wr 6794 4222
2019-12-16 0612 4207.5 003160023 Iqaluit Radio NU CAN na FP53rr 2642 1642
2019-12-16 0549 4207.5 002711000 Istanbul Radio TUR as KN40jx 8583 5333
2019-12-16 0535 4207.5 003669997 COMMSTA Miami FL USA na EL95to 1801 1119
2019-12-16 0534 4207.5 003669995 COMMSTA Portsmouth VA USA na FM16xr 838 520
2019-12-16 0425 4207.5 007100001 Rio de Janeiro Radio BRA sa GG87da 8263 5134
2019-12-16 0416 4207.5 003669990 CAMSPAC Pt Reyes CA USA na CM87pw 3350 2081
2019-12-16 0414 4207.5 002371000 Olympia Radio GRC eu KM07ro 8379 5206
2019-12-16 0400 4207.5 003669998 COMMSTA New Orleans LA USA na EL59av 1427 886
2019-12-16 0352 2187.5 003100001 Bermuda Harbour Radio BER na FM72pj 1948 1210
2019-12-16 0344 4207.5 002241022 Coruna Radio ESP eu IN53si 5935 3687
2019-12-16 0256 2187.5 002570000 Public Correspondance NOR eu
2019-12-16 0235 2187.5 002275200 CROSS Jobourg FRA eu IN99bq 6088 3783
2019-12-16 0154 2187.5 002442000 Netherlands CG Radio HOL eu JO22dc 6358 3950
2019-12-16 0046 2187.5 002711000 Istanbul Radio TUR as KN40jx 8583 5333
2019-12-16 0039 2187.5 002241022 Coruna Radio ESP eu IN53si 5935 3687
2019-12-16 0036 6312 006010001 Cape Town Radio AFS af JF96ii 13334 8285
2019-12-16 0028 2187.5 002320017 Milford Haven Radio WLS eu IO71kq 5789 3597
2019-12-16 0024 2187.5 002191000 Lyngby Radio DNK eu JO55rt 6574 4085
2019-12-16 0017 2187.5 002320014 Falmouth Radio ENG eu IN79jx 5856 3639
2019-12-15 2305 6312 002371000 Olympia Radio GRC eu KM07ro 8379 5206
2019-12-15 2259 8414.5 007100001 Rio de Janerio Radio BRA sa GG87da 8263 5134
2019-12-15 2250 8414.5 004122100 Shanghai Radio CHN as PM01sc 11533 7166
2019-12-15 2249 6312 006452700 Mauritius Radio MAU af LG89rt 15643 9719
2019-12-15 2245 8414.5 002241022 Coruna Radio ESP eu IN53si 5935 3687
2019-12-15 2225 8414.5 007251860 Valparaiso Radio CHL sa FF46ew 8388 5212
2019-12-15 2115 6312 005030001 Charleville / Wiluna Radio WE AUS oc PG03gp 17240 10712
2019-12-15 2115 8414.5 002371000 Olympia Radio GRC eu KM07ro 8379 5206
2019-12-15 2028 8414.5 006452700 Mauritius Radio MAU af LG89rt 15643 9719
2019-12-15 1956 8414.5 005030001 Charleville / Wiluna Radio WE AUS oc PG30gp 16994 10559
2019-12-15 1837 8414.5 002711000 Istanbul Radio TUR as KN40jx 8583 5333
2019-12-15 1639 8414.5 003160023 Iqaluit Radio NU CAN na FP53rr 5000 2642 1642
2019-12-15 1104 2187.5 003100001 Bermuda Harbour Radio BER na FM72pj 1948 1210
2019-12-15 0728 2187.5 002570000 Public Correspondance NOR eu
2019-12-15 0528 2187.5 002570300 Rogaland Radio NOR eu JO28tp 6118 3801
2019-12-15 0409 2187.5 002500200 Valentia Radio IRL eu IO41tv 5442 3382
2019-12-15 0403 2187.5 003313000 Aasiaat Radio GRL na GP39fg 3529 2193
2019-12-15 0325 2187.5 002320004 Aberdeen Radio SCT eu IO87xd 5760 3579
2019-12-15 0303 2187.5 002320007 Humber Radio ENG eu IO94xc 6001 3729
2019-12-15 0249 2187.5 002570500 Floroe Radio NOR eu JP21mn 5962 3704
2019-12-15 0241 2187.5 002442000 Netherlands CG Radio HOL eu JO22dc 6358 3950
2019-12-15 0231 2187.5 002191000 Lyngby Radio DNK eu JO55rt 6574 4085
2019-12-15 0226 2187.5 002275100 CROSS Gris Nez FRA eu JO00tu 6256 3887
2019-12-15 0225 2187.5 002241022 Coruna Radio ESP eu IN53si 5935 3687
2019-11-26 1147 306 #772 Acushnet MA USA na FN41nr 1044 649
2019-11-26 1147 286 #804 Sandy Hook NJ USA na FN20xl 799 496
2019-11-26 1147 293 #814 English Turn LA USA na EL59av 1427 886
2019-11-26 1147 298 #831 Upper Keweenaw MI USA na EN57qf 748 464
2019-11-26 1147 292 #836 Cheboygan MI USA na EN75sp 456 284
2019-11-26 1147 319 #838 Detroit MI USA na EN82kh 83 52
2019-11-26 1147 322 #839 Porter Center (Youngstown) NY USA na FN03mf 411 255
2019-11-26 1147 324 #844 Hudson Falls NY USA na FN33fg 834 518
2019-11-26 1147 300 #926 Riviere Du Loup QC CAN na FN57es 1288 800
2019-11-26 1147 309 #927 Lauzon QC CAN na FN46jt 1133 704
2019-11-26 1147 296 #929 St Jean Sur Richelieu QC CAN na FN35ih 917 570
2019-11-26 1146 290 #799 Penobscot ME USA na FN54ok 1231 765
2019-11-26 1146 320 #907 Richmond BC CAN na CN89mc 3158 1962
2019-11-26 1146 286 #918 Wiarton ON CAN na EN94kr 396 246
2019-11-26 1145 313 #925 Moisie QC CAN na FO60we 1640 1019
2019-11-26 1145 312 #935 Western Head NS CAN na FN73px 1549 962
2019-11-26 1144 306 #919 Cardinal ON CAN na FN24gs 737 458
2019-11-26 1142 293 #803 Moriches NY USA na FN30ps 904 561
2019-11-26 1121 288 #942 Cape Ray NL CAN na GN07jp 2023 1257
2019-11-26 1119 295 #939 Partridge Island NB CAN na FN65xf 1460 907
2019-11-26 1029 315 #940 Cape Race NL CAN na GN36js 2463 1530
2019-11-26 0756 299 #946 Rigolet NL CAN na GO04uc 2315 1438
2019-11-26 0718 310 #944 Cape Norman NL CAN na GO21cm 2365 1470
2019-11-26 0312 298 #937 Hartlen Point NS CAN na FN84go 1653 1027
2019-11-26 0152 307 #934 Fox Island NS CAN na FN84go 1653 1027
2019-11-24 2187.5 002241022 Coruna Radio ESP eu IN53si 5935 3687
2019-11-24 2187.5 002241024 Valencia Radio ESP eu IM98wr 6794 4222
2019-11-24 2187.5 002241026 Las Palmas Radio CNR af IL27es 6227 3869
2019-11-24 2187.5 003100001 Bermuda Harbour Radio BER na FM72pj 1948 1210
2019-11-24 2187.5 002500200 Valentia Radio IRL eu IO41tv 5442 3382
2019-11-24 2187.5 002442000 Netherlands CG Radio HOL eu JO22dc 6358 3950
2019-11-24 6312 007251860 Valparaiso Radio CHL sa FF46ew 8388 5212
2019-11-24 6312 006010001 Cape Town Radio AFS af JF96ii 13334 8285
2019-11-24 6312 007100001 Rio de Janeiro Radio BRA sa GG87da 8263 5134
2019-11-24 6312 007100003 Manaus Radio BRA sa GI06av 5509 3423
2019-11-24 6312 003669993 CAMSPAC Honolulu HI HWA oc BL01wk 7198 4472
2019-11-24 6312 003669990 CAMSPAC Pt Reyes CA USA na CM87pw 3350 2081
2019-11-24 6312 005030001 Charleville / Wiluna Radio WE AUS oc PG03gp 17240 10712
2019-11-24 6312 005120010 Taupo Radio NZL oc RF81fd 13477 8374
2019-11-23 6312 002371000 Olympia Radio GRC eu KM07ro 8379 5206
2019-11-23 6312 003160023 Iqaluit Radio NU CAN na FP53rr 2642 1642
2019-11-23 6312 006452700 Mauritius Radio MAU af LG89rt 15643 9719
2019-11-23 6312 002711000 Istanbul Radio TUR as KN40jx 8583 5333
2019-11-22 1144 293 #814 English Turn LA USA na EL59av 1427 886
2019-11-22 1144 298 #831 Upper Keweenaw MI USA na EN57qf 748 464
2019-11-22 1144 292 #836 Cheboygan MI USA na EN75sp 456 284
2019-11-22 1144 319 #838 Detroit MI USA na EN82kh 83 52
2019-11-22 1144 322 #839 Porter Center (Youngstown) NY USA na FN03mf 411 255
2019-11-22 1144 324 #844 Hudson Falls NY USA na FN33fg 834 518
2019-11-22 1141 293 #803 Moriches NY USA na FN30ps 904 561
2019-11-22 1139 290 #799 Penobscot ME USA na FN54ok 1231 765
2019-11-22 1139 296 #929 St Jean Sur Richelieu QC CAN na FN35ih 917 570
2019-11-22 1129 300 #926 Riviere Du Loup QC CAN na FN57es 1288 800
2019-11-22 1114 309 #927 Lauzon QC CAN na FN46jt 1133 704
2019-11-22 1100 288 #942 Cape Ray NL CAN na GN07jp 2023 1257
2019-11-22 1047 306 #772 Acushnet MA USA na FN41nr 1044 649
2019-11-22 1031 312 #935 Western Head NS CAN na FN73px 1549 962
2019-11-22 1006 313 #925 Moisie QC CAN na FO60we 1640 1019
2019-11-22 1002 320 #907 Richmond BC CAN na CN89mc 3158 1962
2019-11-22 0617 315 #940 Cape Race NL CAN na GN36js 2463 1530
2019-11-22 0558 310 #944 Cape Norman NL CAN na GO21cm 2365 1470
2019-11-22 0508 307 #934 Fox Island NS CAN na FN84go 1653 1027
2019-11-22 0508 295 #939 Partridge Island NB CAN na FN65xf 1460 907
2019-11-22 0508 302 #972 Miraflores (Panama) PNR ca FJ08ex 3646 2266
2019-11-22 0507 306 #919 Cardinal ON CAN na FN24gs 737 458
2019-11-22 0506 307 #971 Gatun PNR ca FJ09ag 3611 2243
2019-11-22 0419 298 #937 Hartlen Point NS CAN na FN84go 1653 1027
2019-11-16 1314 286 #918 Wiarton ON CAN na EN94kr 396 246
2019-11-16 1314 298 #831 Upper Keweenaw MI USA na EN57qf 748 464
2019-11-16 1314 322 #839 Porter Center (Youngstown) NY USA na FN03mf 411 255
2019-11-16 1314 292 #836 Cheboygan MI USA na EN75sp 456 284
2019-11-16 1314 319 #838 Detroit MI USA na EN82kh 83 52
2019-11-16 1307 293 #803 Moriches NY USA na FN30ps 904 561
2019-11-16 1306 290 #799 Penobscot ME USA na FN54ok 1231 765
2019-11-16 1304 324 #844 Hudson Falls NY USA na FN33fg 834 518
2019-11-16 1233 296 #929 St Jean Sur Richelieu QC CAN na FN35ih 917 570
2019-11-16 1202 293 #814 English Turn LA USA na EL59av 1427 886
2019-11-16 1128 309 #927 Lauzon QC CAN na FN46jt 1133 704
2019-11-16 1125 300 #926 Riviere Du Loup QC CAN na FN57es 1288 800
2019-11-16 1123 313 #925 Moisie QC CAN na FO60we 1640 1019
2019-11-16 1120 286 #804 Sandy Hook NJ USA na FN20xl 799 496
2019-11-16 1109 306 #772 Acushnet MA USA na FN41nr 1044 649
2019-11-16 1102 288 #942 Cape Ray NL CAN na GN07jp 2023 1257
2019-11-16 1042 518 $04Q Port Caledonia (Sydney) NS CAN na GN06be 1949 1211
2019-11-16 1041 312 #935 Western Head NS CAN na FN73px 1549 962
2019-11-16 0924 320 #907 Richmond BC CAN na CN89mc 3158 1962
2019-11-16 0906 315 #940 Cape Race NL CAN na GN36js 2463 1530
2019-11-16 0856 306 #919 Cardinal ON CAN na FN24gs 737 458
2019-11-16 0855 295 #939 Partridge Island NB CAN na FN65xf 1460 907
2019-11-16 0831 518 $12C San Francisco (Point Reyes) CA USA na CM87pw 3350 2081
2019-11-16 0649 518 $12Q Cambria CA USA na CM95lm 3309 2056
2019-11-16 0619 310 #944 Cape Norman NL CAN na GO21cm 2365 1470
2019-11-16 0537 298 #937 Hartlen Point NS CAN na FN84go 1653 1027
2019-11-16 0533 518 $12J Kodiak (East) AK ALS na BO37rs 5031 3126
2019-11-16 0419 307 #971 Gatun PNR ca FJ09ag 3611 2243
2019-11-16 0418 307 #934 Fox Island NS CAN na FN84go 1653 1027
2019-11-16 0354 315 #908 Amphitrite Pt. BC CAN na CN78fw 3346 2079
2019-11-16 0350 518 $12X Kodiak (West) AK ALS na BO37rs 5031 3126
2019-11-16 0349 300 #906 Sandspit BC CAN na CO43mf 3720 2311
2019-11-16 0340 518 $12W Astoria OR USA na CN86ae 3248 2018
2019-11-16 0200 518 $04M Simiutaq (Cape Farewell) GRL na GP60rq 3263 2027
2019-11-16 0120 518 $18I Upernavik (Disko Is.) GRL na GQ12ws 3758 2335
2019-11-16 0024 518 $04C Moisie (Sept-Iles) QC CAN na FO60we 1640 1019
2019-11-16 0012 518 $04B Bermuda Harbour BER na FM72qi 500 1957 1216
2019-11-16 0005 518 $04C Moisie (Sept-Iles) QC CAN na FO60we 1640 1019
2019-11-15 2320 518 $04U Chebogue (Fundy) NS CAN na FN63wr 1434 891
2019-11-15 2110 518 $04H Ferndale (Prescott) ON CAN na EN94jw 413 257
2019-11-15 1110 518 $04T Iqaluit NU CAN na FP53rr 2642 1642
2019-11-15 0946 518 $04Q Port Caledonia (Sydney) NS CAN na GN06be 1949 1211
2019-11-15 0850 518 $04F Boston MA USA na FN41rr 1072 666
2019-11-15 0831 518 $12C San Francisco (Point Reyes) CA USA na CM87pw 3350 2081
2019-11-15 0749 518 $12W Astoria OR USA na CN86ae 3248 2018
2019-11-15 0653 518 $12Q Cambria CA USA na CM95lm 3309 2056
2019-11-15 0605 518 $12J Kodiak (East) AK ALS na BO37rs 5031 3126
2019-11-15 0500 518 $04G New Orleans LA USA na EL59av 1427 886
2019-11-15 0401 518 $02A Corsen FRA eu IN78ll 5934 3687
2019-11-15 0156 518 $01L Rogaland NOR eu JO28tp 6118 3801
2019-11-15 0120 518 $18I Upernavik (Disko Is.) GRL na GQ12ws 3758 2335
2019-11-15 0110 518 $04H Ferndale (Prescott) ON CAN na EN94jw 413 257
2019-11-15 0020 518 $04C Moisie (Sept-Iles) QC CAN na FO60we 1640 1019
2019-11-15 0011 518 $04B Bermuda Harbour BER na FM72qi 500 1957 1216
2019-11-14 2320 518 $04U Chebogue (Fundy) NS CAN na FN63wr 1434 891
2019-11-14 2304 518 $04R San Juan PR PTR ca FK68ll 3005 1867
2019-11-14 2210 518 $04N Portsmouth VA USA na FM16xr 838 520
2019-11-14 2200 518 $04M Simiutaq (Cape Farewell) GRL na GP60rq 3263 2027
2019-09-23 2355 2187.5 002275100 CROSS Gris Nez FRA eu JO00tu 6256 3887
2019-09-23 2333 2187.5 002371000 Olympia Radio GRC eu KM07ro 8379 5206
2019-09-23 2237 8414.5 002241022 Coruna Radio ESP eu IN53si 5935 3687
2019-09-23 2121 12577 003669997 COMMSTA Miami FL USA na EL95to 1801 1119
2019-09-23 2118 8414.5 003669991 COMMSTA Boston MA USA na FN41rp 1072 666
2019-09-23 2116 12577 003669991 COMMSTA Boston MA USA na FN41rp 1072 666
2019-09-23 2113 12577 003669995 COMMSTA Portsmouth VA USA na FM16xr 838 520
2019-09-23 2100 12577 005030001 Charleville / Wiluna Radio WE AUS oc PG30gp 1000 16994 10559
2019-09-23 2020 12577 003669998 COMMSTA New Orleans LA USA na EL59av 1427 886
2019-09-23 2018 8414.5 003669998 COMMSTA New Orleans LA USA na EL59av 1427 886
2019-09-23 2002 12577 002711000 Istanbul Radio TUR as KN40jx 8583 5333
2019-09-23 1928 12577 002241022 Coruna Radio ESP eu IN53si 5935 3687
2019-09-23 1214 8414.5 003160023 Iqaluit Radio NU CAN na FP53rr 5000 2642 1642
2019-09-23 1214 12577 003160023 Iqaluit Radio NU CAN na FP53rr 5000 2642 1642
2019-09-23 1108 8414.5 003669995 COMMSTA Portsmouth VA USA na FM16xr 838 520
2019-09-23 0920 8414.5 007100001 Rio de Janerio Radio BRA sa GG87da 8263 5134
2019-09-23 0659 8414.5 005030001 Charleville / Wiluna Radio WE AUS oc PG30gp 16994 10559
2019-09-23 0634 8414.5 003669997 COMMSTA Miami FL USA na EL95to 1801 1119
2019-09-23 0610 2187.5 002241026 Las Palmas Radio CNR af IL27es 6227 3869
2019-09-23 0544 2187.5 002241024 Valencia Radio ESP eu IM98wr 6794 4222
2019-09-23 0459 8414.5 006010001 Cape Town Radio AFS af JF96ii 13334 8285
2019-09-23 0407 2187.5 003061000 Curacao Radio ATN ca FK52ne 1000 3564 2214
2019-09-23 0352 2187.5 002320024 Stornoway Radio SCT eu IO68vl 5480 3405
2019-09-23 0347 2187.5 002500200 Valentia Radio IRL eu IO41tv 5442 3382
2019-09-23 0333 2187.5 002570000 Public Correspondance NOR eu
2019-09-23 0305 8414.5 007100003 Manaus Radio BRA sa GI06av 5509 3423
2019-09-23 0302 8414.5 003669899 Kodiak Radio AK ALS na BO37rs 5031 3126
2019-09-23 0150 2187.5 002241022 Coruna Radio ESP eu IN53si 5935 3687
2019-09-23 0118 2187.5 002191000 Lyngby Radio DNK eu JO55rt 6574 4085
2019-09-23 0049 2187.5 002320014 Falmouth Radio ENG eu IN79jx 5856 3639
2019-09-23 0047 8414.5 003669990 CAMSPAC Pt Reyes CA USA na CM87pw 3350 2081
2019-09-23 0018 2187.5 002442000 Netherlands CG Radio HOL eu JO22dc 6358 3950
2019-09-23 0015 2187.5 003313000 Aasiaat Radio GRL na GP39fg 3529 2193
2019-09-23 0004 8414.5 002371000 Olympia Radio GRC eu KM07ro 8379 5206
2019-09-22 2342 8414.5 007251860 Valparaiso Radio CHL sa FF46ew 8388 5212
2019-09-22 1818 16804.5 003669990 CAMSPAC Pt Reyes CA USA na CM87pw 3350 2081
2019-09-22 1816 16804.5 003669899 Kodiak Radio AK ALS na BO37rs 5031 3126
2019-09-22 1609 16804.5 003669991 COMMSTA Boston MA USA na FN41rp 1072 666
2019-09-22 1204 6312 005030001 Charleville / Wiluna Radio WE AUS oc PG03gp 17240 10712
2019-09-22 1138 8414.5 004122100 Shanghai Radio CHN as PM01sc 11533 7166
2019-09-22 1132 6312 003160023 Iqaluit Radio NU CAN na FP53rr 2642 1642
2019-09-22 1004 8414.5 003669997 COMMSTA Miami FL USA na EL95to 1801 1119
2019-09-22 0616 6312 003669990 CAMSPAC Pt Reyes CA USA na CM87pw 3350 2081
2019-09-22 0616 8414.5 003669990 CAMSPAC Pt Reyes CA USA na CM87pw 3350 2081
2019-09-22 0611 6312 003669993 CAMSPAC Honolulu HI HWA oc BL01wk 7198 4472
2019-09-22 0602 8414.5 003669991 COMMSTA Boston MA USA na FN41rp 1072 666
2019-09-22 0600 8414.5 007100001 Rio de Janerio Radio BRA sa GG87da 8263 5134
2019-09-22 0558 6312 003669995 COMMSTA Portsmouth VA USA na FM16xr 838 520
2019-09-22 0555 6312 007100001 Rio de Janeiro Radio BRA sa GG87da 8263 5134
2019-09-22 0447 8414.5 003669899 Kodiak Radio AK ALS na BO37rs 5031 3126
2019-09-22 0439 8414.5 003669993 CAMSPAC Honolulu HI HWA oc BL01wk 7198 4472
2019-09-22 0420 8414.5 003669998 COMMSTA New Orleans LA USA na EL59av 1427 886
2019-09-22 0419 6312 003669998 COMMSTA New Orleans LA USA na EL59av 1427 886
2019-09-22 0354 6312 003669997 COMMSTA Miami FL USA na EL95to 1801 1119
2019-09-22 0343 6312 003669991 COMMSTA Boston MA USA na FN41rp 1072 666
2019-09-22 0304 6312 007251860 Valparaiso Radio CHL sa FF46ew 8388 5212
2019-09-22 0249 6312 002371000 Olympia Radio GRC eu KM07ro 8379 5206
2019-09-22 0244 8414.5 007100003 Manaus Radio BRA sa GI06av